createdAt,value
2019-01-23T00:02:53.063Z,103.63
2019-01-23T00:05:22.224Z,114.33
2019-01-23T00:10:27.528Z,106.03
2019-01-23T00:12:56.648Z,100.23
2019-01-23T00:15:26.474Z,112.57
2019-01-23T00:17:59.089Z,100.93
2019-01-23T00:20:28.398Z,87.97
2019-01-23T00:22:57.855Z,95.07
2019-01-23T00:25:26.902Z,98.83
2019-01-23T00:27:56.369Z,94.93
2019-01-23T00:30:25.487Z,100.57
2019-01-23T00:32:54.817Z,101.93
2019-01-23T00:35:23.958Z,90.97
2019-01-23T00:37:53.836Z,93.50
2019-01-23T00:40:24.812Z,102.30
2019-01-23T00:42:53.924Z,95.97
2019-01-23T00:45:23.007Z,97.30
2019-01-23T00:47:53.689Z,101.17
2019-01-23T00:50:23.071Z,90.00
2019-01-23T00:52:53.354Z,88.40
2019-01-23T00:55:22.796Z,92.07
2019-01-23T00:57:51.839Z,94.30
2019-01-23T01:00:23.381Z,90.00
2019-01-23T01:02:53.113Z,90.50
2019-01-23T01:05:23.222Z,90.13
2019-01-23T01:07:52.419Z,87.03
2019-01-23T01:10:21.955Z,90.23
2019-01-23T01:12:57.131Z,83.73
2019-01-23T01:15:26.466Z,88.17
2019-01-23T01:17:55.699Z,92.77
2019-01-23T01:20:25.119Z,90.03
2019-01-23T01:22:55.033Z,91.50
2019-01-23T01:25:24.171Z,96.17
2019-01-23T01:27:53.691Z,100.30
2019-01-23T01:30:23.785Z,109.40
2019-01-23T01:32:53.192Z,94.20
2019-01-23T01:35:22.259Z,104.43
2019-01-23T01:37:51.398Z,104.73
2019-01-23T01:40:20.854Z,108.13
2019-01-23T01:42:49.978Z,99.43
2019-01-23T01:45:19.476Z,89.17
2019-01-23T01:47:48.608Z,104.53
2019-01-23T01:50:19.476Z,96.77
2019-01-23T01:56:17.586Z,89.77
2019-01-23T01:58:46.714Z,84.03
2019-01-23T02:01:15.865Z,90.27
2019-01-23T02:03:44.892Z,92.03
2019-01-23T02:06:13.922Z,75.03
2019-01-23T02:08:43.851Z,77.23
2019-01-23T02:11:23.833Z,77.57
2019-01-23T02:13:54.681Z,81.10
2019-01-23T02:16:58.057Z,76.13
2019-01-23T02:19:28.008Z,66.40
2019-01-23T02:21:57.139Z,66.47
2019-01-23T02:24:26.212Z,58.63
2019-01-23T02:26:55.327Z,64.07
2019-01-23T02:29:24.382Z,60.10
2019-01-23T02:31:53.412Z,57.27
2019-01-23T02:34:23.297Z,62.30
2019-01-23T02:36:54.135Z,58.50
2019-01-23T02:39:23.154Z,59.90
2019-01-23T02:41:52.192Z,60.50
2019-01-23T02:44:23.515Z,61.37
2019-01-23T02:46:54.900Z,58.23
2019-01-23T02:49:23.879Z,54.77
2019-01-23T02:51:52.999Z,59.27
2019-01-23T02:54:22.035Z,60.30
2019-01-23T02:56:56.383Z,60.10
2019-01-23T02:59:25.693Z,57.20
2019-01-23T03:01:54.800Z,55.63
2019-01-23T03:04:24.363Z,62.43
2019-01-23T03:06:54.294Z,54.50
2019-01-23T03:09:24.746Z,51.63
2019-01-23T03:12:06.210Z,52.87
2019-01-23T03:14:35.884Z,51.53
2019-01-23T03:17:05.005Z,52.40
2019-01-23T03:19:34.196Z,53.13
2019-01-23T03:22:04.386Z,55.47
2019-01-23T03:24:33.803Z,53.80
2019-01-23T03:27:02.826Z,51.00
2019-01-23T03:29:32.628Z,49.93
2019-01-23T03:32:06.910Z,51.83
2019-01-23T03:34:35.953Z,52.23
2019-01-23T03:37:05.104Z,47.73
2019-01-23T03:39:34.819Z,44.33
2019-01-23T03:42:03.957Z,49.00
2019-01-23T03:44:33.756Z,49.87
2019-01-23T03:47:06.514Z,49.73
2019-01-23T03:49:35.535Z,45.93
2019-01-23T03:52:04.631Z,46.07
2019-01-23T03:54:33.657Z,44.00
2019-01-23T03:57:02.641Z,47.93
2019-01-23T03:59:32.495Z,48.90
2019-01-23T04:02:01.739Z,46.40
2019-01-23T04:04:31.106Z,41.93
2019-01-23T04:07:00.078Z,45.00
2019-01-23T04:09:29.120Z,48.53
2019-01-23T04:12:00.393Z,46.13
2019-01-23T04:14:29.505Z,42.50
2019-01-23T04:17:00.199Z,50.23
2019-01-23T04:19:29.364Z,44.93
2019-01-23T04:22:00.204Z,40.90
2019-01-23T04:24:29.106Z,44.43
2019-01-23T04:26:58.401Z,44.30
2019-01-23T04:29:27.407Z,47.70
2019-01-23T04:31:56.421Z,46.37
2019-01-23T04:34:25.405Z,39.20
2019-01-23T04:36:54.322Z,41.93
2019-01-23T04:39:23.308Z,41.47
2019-01-23T04:41:54.218Z,43.00
2019-01-23T04:44:22.812Z,44.03
2019-01-23T04:47:25.323Z,40.77
2019-01-23T04:49:54.617Z,44.07
2019-01-23T04:52:37.119Z,39.60
2019-01-23T04:55:06.844Z,44.30
2019-01-23T04:57:38.021Z,46.20
2019-01-23T05:00:08.860Z,44.77
2019-01-23T05:02:38.550Z,35.90
2019-01-23T05:05:09.717Z,40.27
2019-01-23T05:08:09.289Z,42.83
2019-01-23T05:10:38.541Z,41.93
2019-01-23T05:13:09.597Z,41.77
2019-01-23T05:15:39.633Z,40.77
2019-01-23T05:18:08.617Z,42.40
2019-01-23T05:20:40.862Z,44.93
2019-01-23T05:23:09.805Z,43.03
2019-01-23T05:25:39.023Z,41.53
2019-01-23T05:28:11.824Z,39.37
2019-01-23T05:30:40.796Z,43.03
2019-01-23T05:33:09.938Z,38.53
2019-01-23T05:35:41.654Z,41.33
2019-01-23T05:38:10.632Z,42.23
2019-01-23T05:40:40.032Z,39.27
2019-01-23T05:43:09.684Z,43.97
2019-01-23T05:45:38.716Z,43.77
2019-01-23T05:48:07.620Z,42.73
2019-01-23T05:50:36.445Z,46.83
2019-01-23T05:53:06.234Z,43.43
2019-01-23T05:55:35.135Z,44.50
2019-01-23T05:58:04.618Z,41.67
2019-01-23T06:00:33.815Z,41.80
2019-01-23T06:03:03.002Z,45.57
2019-01-23T06:05:31.962Z,44.77
2019-01-23T06:08:00.833Z,44.33
2019-01-23T06:10:29.734Z,45.13
2019-01-23T06:12:58.599Z,40.27
2019-01-23T06:15:27.897Z,39.23
2019-01-23T06:17:57.128Z,38.47
2019-01-23T06:20:35.223Z,43.20
2019-01-23T06:23:04.129Z,44.23
2019-01-23T06:25:33.459Z,43.67
2019-01-23T06:28:02.630Z,42.57
2019-01-23T06:30:31.566Z,43.60
2019-01-23T06:33:00.585Z,43.33
2019-01-23T06:35:29.897Z,42.17
2019-01-23T06:37:58.787Z,43.60
2019-01-23T06:40:29.928Z,42.10
2019-01-23T06:42:59.169Z,39.83
2019-01-23T06:45:28.094Z,39.80
2019-01-23T06:47:59.018Z,44.87
2019-01-23T06:50:29.030Z,42.20
2019-01-23T06:52:58.292Z,41.07
2019-01-23T06:55:27.995Z,36.07
2019-01-23T06:57:56.884Z,38.33
2019-01-23T07:00:26.423Z,39.50
2019-01-23T07:02:55.423Z,41.00
2019-01-23T07:05:26.682Z,37.60
2019-01-23T07:07:55.967Z,38.63
2019-01-23T07:10:27.408Z,44.23
2019-01-23T07:12:56.692Z,40.53
2019-01-23T07:15:26.466Z,46.70
2019-01-23T07:17:55.386Z,44.50
2019-01-23T07:23:01.285Z,47.63
2019-01-23T07:25:30.171Z,50.90
2019-01-23T07:27:59.192Z,53.03
2019-01-23T07:30:37.153Z,55.13
2019-01-23T07:33:06.367Z,57.57
2019-01-23T07:35:35.293Z,58.33
2019-01-23T07:38:05.100Z,55.47
2019-01-23T07:40:35.177Z,54.40
2019-01-23T07:43:04.301Z,59.83
2019-01-23T07:45:33.315Z,55.00
2019-01-23T07:48:02.494Z,56.03
2019-01-23T07:50:35.668Z,55.27
2019-01-23T07:53:04.687Z,55.40
2019-01-23T07:55:33.680Z,60.13
2019-01-23T07:58:05.149Z,50.50
2019-01-23T08:00:33.993Z,54.47
2019-01-23T08:03:03.371Z,56.03
2019-01-23T08:05:32.263Z,55.63
2019-01-23T08:08:01.675Z,52.23
2019-01-23T08:10:30.668Z,57.47
2019-01-23T08:12:59.976Z,58.57
2019-01-23T08:15:37.185Z,61.30
2019-01-23T08:18:07.257Z,60.30
2019-01-23T08:20:37.357Z,60.00
2019-01-23T08:23:10.325Z,65.47
2019-01-23T08:25:39.337Z,61.03
2019-01-23T08:28:18.126Z,53.10
2019-01-23T08:30:47.118Z,56.97
2019-01-23T08:33:19.146Z,61.67
2019-01-23T08:35:48.513Z,57.53
2019-01-23T08:38:20.911Z,60.87
2019-01-23T08:40:52.176Z,62.60
2019-01-23T08:43:21.417Z,60.87
2019-01-23T08:45:50.685Z,60.23
2019-01-23T08:48:19.879Z,60.80
2019-01-23T08:50:52.461Z,54.00
2019-01-23T08:53:21.779Z,57.63
2019-01-23T08:55:53.692Z,64.20
2019-01-23T08:58:22.313Z,62.47
2019-01-23T09:00:53.103Z,61.57
2019-01-23T09:03:22.031Z,58.00
2019-01-23T09:05:52.615Z,59.60
2019-01-23T09:08:21.654Z,61.57
2019-01-23T09:10:52.743Z,58.87
2019-01-23T09:13:21.829Z,58.17
2019-01-23T09:15:50.881Z,60.23
2019-01-23T09:18:19.866Z,59.20
2019-01-23T09:20:49.075Z,61.53
2019-01-23T09:23:18.339Z,64.13
2019-01-23T09:25:50.075Z,63.93
2019-01-23T09:28:18.387Z,61.87
2019-01-23T09:31:31.233Z,60.27
2019-01-23T09:34:31.003Z,58.60
2019-01-23T09:37:12.648Z,64.33
2019-01-23T09:40:22.261Z,58.37
2019-01-23T09:43:17.489Z,63.47
2019-01-23T09:46:14.091Z,58.90
2019-01-23T09:49:23.869Z,62.53
2019-01-23T09:52:42.111Z,60.00
2019-01-23T09:57:51.362Z,56.23
2019-01-23T10:00:23.448Z,56.83
2019-01-23T10:02:52.448Z,53.63
2019-01-23T10:05:22.556Z,53.77
2019-01-23T10:07:51.599Z,56.07
2019-01-23T10:10:20.713Z,56.37
2019-01-23T10:12:50.483Z,54.10
2019-01-23T10:15:49.649Z,53.90
2019-01-23T10:18:18.729Z,59.37
2019-01-23T10:20:49.942Z,52.03
2019-01-23T10:23:19.189Z,53.77
2019-01-23T10:25:49.114Z,56.33
2019-01-23T10:28:18.128Z,48.00
2019-01-23T10:30:48.040Z,54.33
2019-01-23T10:33:17.648Z,51.97
2019-01-23T10:35:47.400Z,50.87
2019-01-23T10:38:16.372Z,49.23
2019-01-23T10:40:45.636Z,51.97
2019-01-23T10:43:14.943Z,50.13
2019-01-23T10:45:43.982Z,47.53
2019-01-23T10:48:13.198Z,43.87
2019-01-23T10:50:45.250Z,45.97
2019-01-23T10:53:14.093Z,44.10
2019-01-23T10:55:43.301Z,40.03
2019-01-23T10:58:13.162Z,37.90
2019-01-23T11:00:42.156Z,34.13
2019-01-23T11:03:11.178Z,36.63
2019-01-23T11:05:40.193Z,39.10
2019-01-23T11:08:09.090Z,36.87
2019-01-23T11:10:38.029Z,40.47
2019-01-23T11:13:07.301Z,39.60
2019-01-23T11:15:37.391Z,35.93
2019-01-23T11:18:06.889Z,36.00
2019-01-23T11:20:36.433Z,37.73
2019-01-23T11:23:05.418Z,41.43
2019-01-23T11:25:35.255Z,33.23
2019-01-23T11:28:04.595Z,35.10
2019-01-23T11:30:33.687Z,37.73
2019-01-23T11:33:06.673Z,37.93
2019-01-23T11:35:36.015Z,38.90
2019-01-23T11:38:06.112Z,36.50
2019-01-23T11:40:35.435Z,35.50
2019-01-23T11:43:05.267Z,38.57
2019-01-23T11:45:38.350Z,33.43
2019-01-23T11:48:07.259Z,33.53
2019-01-23T11:50:36.262Z,37.97
2019-01-23T11:53:06.584Z,35.60
2019-01-23T11:55:35.882Z,36.73
2019-01-23T11:58:06.017Z,34.03
2019-01-23T12:00:37.013Z,35.23
2019-01-23T12:03:06.423Z,38.53
2019-01-23T12:05:36.184Z,35.07
2019-01-23T12:08:05.270Z,34.73
2019-01-23T12:10:34.517Z,36.33
2019-01-23T12:13:03.479Z,34.27
2019-01-23T12:15:32.475Z,36.13
2019-01-23T12:18:01.445Z,35.97
2019-01-23T12:20:36.703Z,34.73
2019-01-23T12:23:05.864Z,42.20
2019-01-23T12:25:35.202Z,36.83
2019-01-23T12:28:04.493Z,34.73
2019-01-23T12:30:34.694Z,37.50
2019-01-23T12:33:07.415Z,35.47
2019-01-23T12:35:39.534Z,39.23
2019-01-23T12:38:08.557Z,38.63
2019-01-23T12:40:37.863Z,37.93
2019-01-23T12:43:07.036Z,41.40
2019-01-23T12:45:36.056Z,46.37
2019-01-23T12:48:05.797Z,41.77
2019-01-23T12:50:34.825Z,42.83
2019-01-23T12:53:03.791Z,44.97
2019-01-23T12:55:33.169Z,41.63
2019-01-23T12:58:02.059Z,40.03
2019-01-23T13:00:32.339Z,42.33
2019-01-23T13:03:03.629Z,42.00
2019-01-23T13:05:32.859Z,47.17
2019-01-23T13:08:04.966Z,45.33
2019-01-23T13:10:34.154Z,41.97
2019-01-23T13:13:03.186Z,42.90
2019-01-23T13:15:32.294Z,39.87
2019-01-23T13:18:01.555Z,42.90
2019-01-23T13:20:30.899Z,43.53
2019-01-23T13:23:00.691Z,42.00
2019-01-23T13:25:30.222Z,45.83
2019-01-23T13:28:04.530Z,46.97
2019-01-23T13:30:33.511Z,45.63
2019-01-23T13:33:03.569Z,44.97
2019-01-23T13:35:35.057Z,39.27
2019-01-23T13:38:05.375Z,39.47
2019-01-23T13:40:39.742Z,44.43
2019-01-23T13:43:08.835Z,45.07
2019-01-23T13:45:41.869Z,50.80
2019-01-23T13:48:11.696Z,43.40
2019-01-23T13:50:42.808Z,49.10
2019-01-23T13:53:11.962Z,45.73
2019-01-23T13:55:41.083Z,49.67
2019-01-23T13:58:10.110Z,45.80
2019-01-23T14:00:45.144Z,47.70
2019-01-23T14:03:15.164Z,46.03
2019-01-23T14:05:45.091Z,49.50
2019-01-23T14:08:14.110Z,50.60
2019-01-23T14:10:43.146Z,51.30
2019-01-23T14:13:12.327Z,51.37
2019-01-23T14:15:42.840Z,46.77
2019-01-23T14:18:15.936Z,48.90
2019-01-23T14:20:44.916Z,50.40
2019-01-23T14:23:14.033Z,49.10
2019-01-23T14:25:43.318Z,52.67
2019-01-23T14:28:13.028Z,50.73
2019-01-23T14:30:46.188Z,57.13
2019-01-23T14:33:15.183Z,51.03
2019-01-23T14:35:45.378Z,47.80
2019-01-23T14:40:51.756Z,48.07
2019-01-23T14:43:28.773Z,48.90
2019-01-23T14:45:58.413Z,49.63
2019-01-23T14:48:27.466Z,52.53
2019-01-23T14:50:57.347Z,49.40
2019-01-23T14:53:27.182Z,51.87
2019-01-23T14:55:56.483Z,54.57
2019-01-23T14:58:27.140Z,49.57
2019-01-23T15:00:56.308Z,49.47
2019-01-23T15:03:27.147Z,51.90
2019-01-23T15:05:56.997Z,54.37
2019-01-23T15:08:26.373Z,56.30
2019-01-23T15:11:01.377Z,53.13
2019-01-23T15:13:31.443Z,55.93
2019-01-23T15:16:03.457Z,55.93
2019-01-23T15:18:32.684Z,58.23
2019-01-23T15:21:01.827Z,56.67
2019-01-23T15:23:30.747Z,59.93
2019-01-23T15:25:59.953Z,56.50
2019-01-23T15:28:28.980Z,53.63
2019-01-23T15:30:57.958Z,55.23
2019-01-23T15:33:27.628Z,54.87
2019-01-23T15:36:02.512Z,53.73
2019-01-23T15:41:14.918Z,58.50
2019-01-23T15:43:48.948Z,51.13
2019-01-23T15:46:22.407Z,46.47
2019-01-23T15:48:56.138Z,49.27
2019-01-23T15:51:25.538Z,55.03
2019-01-23T15:53:54.841Z,50.83
2019-01-23T15:56:26.345Z,50.27
2019-01-23T15:58:55.482Z,48.73
2019-01-23T16:01:24.575Z,46.97
2019-01-23T16:03:53.595Z,46.40
2019-01-23T16:06:22.946Z,45.93
2019-01-23T16:08:53.287Z,43.00
2019-01-23T16:11:22.583Z,40.80
2019-01-23T16:13:51.763Z,40.50
2019-01-23T16:16:23.909Z,39.33
2019-01-23T16:18:53.287Z,38.20
2019-01-23T16:21:23.519Z,34.93
2019-01-23T16:23:52.534Z,40.30
2019-01-23T16:26:21.613Z,37.50
2019-01-23T16:28:52.135Z,39.03
2019-01-23T16:31:23.168Z,40.27
2019-01-23T16:33:55.324Z,43.03
2019-01-23T16:36:24.333Z,41.80
2019-01-23T16:38:53.355Z,42.70
2019-01-23T16:41:22.396Z,42.43
2019-01-23T16:43:52.267Z,38.30
2019-01-23T16:46:25.430Z,34.60
2019-01-23T16:48:55.498Z,37.07
2019-01-23T16:51:24.881Z,31.50
2019-01-23T16:53:53.819Z,31.03
2019-01-23T16:56:23.245Z,25.93
2019-01-23T16:58:52.459Z,29.23
2019-01-23T17:01:21.581Z,32.53
2019-01-23T17:03:53.899Z,30.97
2019-01-23T17:06:25.100Z,32.43
2019-01-23T17:08:54.464Z,32.47
2019-01-23T17:11:23.434Z,31.00
2019-01-23T17:13:52.813Z,35.70
2019-01-23T17:16:22.396Z,35.83
2019-01-23T17:18:51.934Z,36.53
2019-01-23T17:21:21.664Z,39.90
2019-01-23T17:23:54.198Z,37.67
2019-01-23T17:26:23.140Z,39.37
2019-01-23T17:28:52.039Z,42.73
2019-01-23T17:31:21.829Z,40.80
2019-01-23T17:33:51.634Z,37.80
2019-01-23T17:36:20.627Z,38.93
2019-01-23T17:38:49.850Z,38.63
2019-01-23T17:41:18.988Z,40.20
2019-01-23T17:43:49.319Z,39.77
2019-01-23T17:46:20.486Z,37.77
2019-01-23T17:48:49.537Z,36.50
2019-01-23T17:51:19.156Z,41.30
2019-01-23T17:53:48.561Z,42.80
2019-01-23T17:56:17.881Z,42.87
2019-01-23T17:58:46.976Z,43.70
2019-01-23T18:01:16.185Z,48.23
2019-01-23T18:03:45.521Z,45.30
2019-01-23T18:06:14.509Z,49.60
2019-01-23T18:08:45.826Z,48.50
2019-01-23T18:11:15.052Z,46.90
2019-01-23T18:13:45.368Z,45.60
2019-01-23T18:16:14.691Z,43.80
2019-01-23T18:18:46.778Z,46.77
2019-01-23T18:21:16.466Z,42.80
2019-01-23T18:23:45.559Z,42.23
2019-01-23T18:26:14.917Z,44.67
2019-01-23T18:28:43.937Z,44.57
2019-01-23T18:31:43.225Z,47.50
2019-01-23T18:34:39.100Z,42.53
2019-01-23T18:37:28.170Z,43.97
2019-01-23T18:40:27.564Z,45.30
2019-01-23T18:43:56.041Z,43.47
2019-01-23T18:46:46.523Z,42.83
2019-01-23T18:50:05.286Z,42.87
2019-01-23T18:52:34.592Z,40.77
2019-01-23T18:55:07.168Z,42.43
2019-01-23T18:57:36.211Z,39.03
2019-01-23T19:00:08.614Z,41.27
2019-01-23T19:02:37.888Z,35.83
2019-01-23T19:05:12.091Z,33.33
2019-01-23T19:07:41.452Z,31.10
2019-01-23T19:10:12.525Z,33.80
2019-01-23T19:12:42.542Z,33.37
2019-01-23T19:15:13.095Z,31.93
2019-01-23T19:17:42.207Z,31.13
2019-01-23T19:20:15.039Z,29.93
2019-01-23T19:22:44.815Z,33.77
2019-01-23T19:25:14.704Z,32.33
2019-01-23T19:27:43.985Z,33.07
2019-01-23T19:30:17.217Z,30.80
2019-01-23T19:32:46.291Z,28.70
2019-01-23T19:35:20.045Z,32.33
2019-01-23T19:37:49.020Z,29.40
2019-01-23T19:40:18.760Z,33.33
2019-01-23T19:42:48.191Z,32.37
2019-01-23T19:45:20.288Z,31.40
2019-01-23T19:47:49.335Z,33.73
2019-01-23T19:50:51.780Z,33.37
2019-01-23T19:53:32.659Z,46.60
2019-01-23T19:56:01.717Z,48.67
2019-01-23T19:58:30.714Z,47.57
2019-01-23T20:00:59.665Z,45.90
2019-01-23T20:03:28.962Z,54.20
2019-01-23T20:05:58.284Z,53.13
2019-01-23T20:08:27.533Z,54.23
2019-01-23T20:10:59.583Z,57.77
2019-01-23T20:13:28.733Z,63.30
2019-01-23T20:15:57.809Z,54.93
2019-01-23T20:18:27.027Z,61.13
2019-01-23T20:20:56.032Z,64.63
2019-01-23T20:23:28.446Z,69.70
2019-01-23T20:25:57.903Z,57.47
2019-01-23T20:28:27.087Z,44.37
2019-01-23T20:30:56.656Z,38.10
2019-01-23T20:33:28.268Z,33.60
2019-01-23T20:35:57.236Z,40.83
2019-01-23T20:38:26.532Z,38.73
2019-01-23T20:40:55.521Z,37.23
2019-01-23T20:43:24.672Z,34.33
2019-01-23T20:45:53.879Z,41.77
2019-01-23T20:48:30.540Z,37.13
2019-01-23T20:50:59.975Z,38.40
2019-01-23T20:53:28.912Z,34.43
2019-01-23T20:55:58.212Z,43.60
2019-01-23T20:58:30.726Z,36.07
2019-01-23T21:00:59.774Z,32.73
2019-01-23T21:03:34.888Z,36.20
2019-01-23T21:05:59.684Z,41.77
2019-01-23T21:08:31.928Z,44.00
2019-01-23T21:11:01.350Z,41.87
2019-01-23T21:13:30.796Z,42.23
2019-01-23T21:16:00.190Z,41.57
2019-01-23T21:18:29.639Z,38.73
2019-01-23T21:21:06.127Z,47.13
2019-01-23T21:23:39.612Z,41.13
2019-01-23T21:26:08.664Z,43.77
2019-01-23T21:28:37.966Z,42.77
2019-01-23T21:31:09.992Z,43.77
2019-01-23T21:33:42.427Z,44.33
2019-01-23T21:36:11.443Z,48.17
2019-01-23T21:38:40.463Z,45.73
2019-01-23T21:41:09.387Z,43.60
2019-01-23T21:43:41.817Z,46.70
2019-01-23T21:46:11.636Z,44.80
2019-01-23T21:48:41.644Z,40.60
2019-01-23T21:51:11.508Z,37.97
2019-01-23T21:53:40.868Z,35.43
2019-01-23T21:56:11.108Z,35.27
2019-01-23T21:58:43.829Z,34.30
2019-01-23T22:01:13.029Z,35.27
2019-01-23T22:03:42.119Z,32.70
2019-01-23T22:06:11.233Z,40.10
2019-01-23T22:08:40.627Z,38.50
2019-01-23T22:11:09.883Z,38.37
2019-01-23T22:13:38.923Z,36.63
2019-01-23T22:16:08.189Z,39.93
2019-01-23T22:18:37.293Z,42.43
2019-01-23T22:21:06.681Z,37.87
2019-01-23T22:23:35.997Z,41.80
2019-01-23T22:26:05.403Z,46.97
2019-01-23T22:28:34.756Z,46.63
2019-01-23T22:31:04.029Z,51.23
2019-01-23T22:33:33.226Z,50.47
2019-01-23T22:36:04.045Z,49.53
2019-01-23T22:38:33.370Z,52.53
2019-01-23T22:41:02.597Z,50.27
2019-01-23T22:43:31.871Z,52.77
2019-01-23T22:46:00.887Z,58.20
2019-01-23T22:48:30.188Z,57.77
2019-01-23T22:51:05.380Z,55.60
2019-01-23T22:53:35.329Z,57.03
2019-01-23T22:56:04.367Z,58.77
2019-01-23T22:58:33.283Z,59.20
2019-01-23T23:01:21.780Z,59.33
2019-01-23T23:03:51.169Z,54.83
2019-01-23T23:06:20.191Z,56.57
2019-01-23T23:08:50.597Z,63.43
2019-01-23T23:11:20.716Z,62.50
2019-01-23T23:13:50.308Z,59.20
2019-01-23T23:16:55.703Z,61.00
2019-01-23T23:19:24.981Z,58.00
2019-01-23T23:21:54.150Z,57.07
2019-01-23T23:24:23.142Z,62.70
2019-01-23T23:26:56.145Z,58.87
2019-01-23T23:29:26.226Z,63.97
2019-01-23T23:31:55.191Z,62.13
2019-01-23T23:34:24.365Z,63.77
2019-01-23T23:37:08.473Z,63.37
2019-01-23T23:39:37.876Z,67.57
2019-01-23T23:42:07.159Z,63.40
2019-01-23T23:44:36.099Z,65.43
2019-01-23T23:47:05.588Z,63.60
2019-01-23T23:49:34.893Z,64.27
2019-01-23T23:52:04.085Z,59.77
2019-01-23T23:54:33.294Z,61.97
2019-01-23T23:57:03.270Z,65.10
2019-01-23T23:59:32.171Z,62.07
